createdAt,value
2022-10-17T00:03:03.242Z,15.06
2022-10-17T00:08:19.499Z,15.12
2022-10-17T00:13:36.377Z,15
2022-10-17T00:18:53.079Z,15.06
2022-10-17T00:24:09.807Z,15.06
2022-10-17T00:28:39.838Z,15.12
2022-10-17T00:33:51.482Z,15.12
2022-10-17T00:38:59.962Z,15.19
2022-10-17T00:44:11.010Z,15.19
2022-10-17T00:49:20.766Z,15.25
2022-10-17T00:54:29.243Z,15.31
2022-10-17T00:59:39.641Z,15.38
2022-10-17T01:04:49.432Z,15.38
2022-10-17T01:09:58.521Z,15.44
2022-10-17T01:15:07.627Z,15.5
2022-10-17T01:20:17.398Z,15.62
2022-10-17T01:25:27.799Z,15.69
2022-10-17T01:30:38.203Z,15.69
2022-10-17T01:35:48.023Z,15.81
2022-10-17T01:40:57.720Z,15.88
2022-10-17T01:46:07.511Z,15.94
2022-10-17T01:51:17.243Z,15.94
2022-10-17T01:56:32.216Z,16
2022-10-17T02:01:48.498Z,16
2022-10-17T02:07:04.542Z,15.94
2022-10-17T02:12:20.699Z,16.06
2022-10-17T02:17:36.861Z,16.12
2022-10-17T02:22:51.742Z,16.19
2022-10-17T02:28:07.898Z,16.25
2022-10-17T02:32:35.324Z,16.38
2022-10-17T02:37:45.724Z,16.38
2022-10-17T02:42:54.841Z,16.44
2022-10-17T02:48:04.633Z,16.44
2022-10-17T02:53:14.364Z,16.44
2022-10-17T02:58:23.484Z,16.38
2022-10-17T03:03:31.959Z,16.44
2022-10-17T03:08:41.729Z,16.38
2022-10-17T03:13:50.870Z,16.38
2022-10-17T03:18:59.323Z,16.31
2022-10-17T03:24:17.402Z,16.5
2022-10-17T03:29:26.519Z,16.56
2022-10-17T03:34:36.280Z,16.62
2022-10-17T03:39:45.410Z,16.62
2022-10-17T03:44:54.598Z,16.62
2022-10-17T03:50:12.041Z,16.56
2022-10-17T03:55:28.527Z,16.56
2022-10-17T04:00:46.067Z,16.62
2022-10-17T04:06:03.407Z,16.56
2022-10-17T04:10:37.543Z,16.62
2022-10-17T04:15:46.687Z,16.69
2022-10-17T04:20:57.719Z,16.69
2022-10-17T04:26:08.132Z,16.69
2022-10-17T04:31:21.015Z,16.75
2022-10-17T04:36:27.033Z,16.69
2022-10-17T04:41:37.399Z,16.81
2022-10-17T04:46:53.823Z,16.88
2022-10-17T04:52:01.403Z,16.81
2022-10-17T04:57:29.754Z,16.94
2022-10-17T05:02:40.106Z,17
2022-10-17T05:07:48.603Z,17
2022-10-17T05:12:59.000Z,17
2022-10-17T05:18:08.761Z,17.06
2022-10-17T05:23:22.619Z,17.06
2022-10-17T05:28:39.430Z,17
2022-10-17T05:33:54.944Z,17.12
2022-10-17T05:39:11.138Z,17.12
2022-10-17T05:44:26.613Z,17.12
2022-10-17T05:49:52.669Z,17.19
2022-10-17T05:54:58.925Z,17.12
2022-10-17T06:00:15.578Z,17.12
2022-10-17T06:05:34.284Z,17.25
2022-10-17T06:10:50.450Z,17.25
2022-10-17T06:15:21.716Z,17.31
2022-10-17T06:20:30.840Z,17.31
2022-10-17T06:25:39.962Z,17.44
2022-10-17T06:30:49.723Z,17.5
2022-10-17T06:36:00.160Z,17.5
2022-10-17T06:41:09.886Z,17.62
2022-10-17T06:46:20.282Z,17.69
2022-10-17T06:51:30.043Z,17.69
2022-10-17T06:56:39.192Z,17.56
2022-10-17T07:01:49.580Z,17.5
2022-10-17T07:12:13.660Z,17.88
2022-10-17T07:17:28.091Z,17.94
2022-10-17T07:22:43.426Z,18
2022-10-17T07:27:59.583Z,18.06
2022-10-17T07:33:15.115Z,18.06
2022-10-17T07:38:29.970Z,18.12
2022-10-17T07:43:46.146Z,18.38
2022-10-17T07:48:14.201Z,18.5
2022-10-17T07:53:25.240Z,18.44
2022-10-17T07:58:35.003Z,18.56
2022-10-17T08:03:44.769Z,18.62
2022-10-17T08:08:58.473Z,18.62
2022-10-17T08:14:04.282Z,18.75
2022-10-17T08:19:13.411Z,18.88
2022-10-17T08:24:47.489Z,18.75
2022-10-17T08:29:56.606Z,18.94
2022-10-17T08:35:08.284Z,19
2022-10-17T08:40:17.401Z,19.19
2022-10-17T08:45:26.518Z,19.31
2022-10-17T08:50:36.922Z,19.25
2022-10-17T08:55:46.051Z,19.44
2022-10-17T09:00:57.081Z,19.69
2022-10-17T09:06:06.843Z,19.62
2022-10-17T09:12:11.886Z,19.81
2022-10-17T09:17:29.559Z,19.88
2022-10-17T09:22:47.021Z,19.94
2022-10-17T09:27:13.012Z,20
2022-10-17T09:37:10.507Z,20.25
2022-10-17T09:52:50.933Z,20.62
2022-10-17T09:58:08.851Z,20.62
2022-10-17T10:03:25.811Z,20.69
2022-10-17T10:08:41.810Z,20.88
2022-10-17T10:13:59.239Z,20.62
2022-10-17T10:19:15.799Z,20.56
2022-10-17T10:23:46.680Z,20.5
2022-10-17T10:28:55.978Z,20.44
2022-10-17T10:34:05.563Z,20.5
2022-10-17T10:39:38.370Z,20.56
2022-10-17T10:44:46.840Z,20.56
2022-10-17T10:49:55.312Z,20.44
2022-10-17T10:55:07.640Z,20.5
2022-10-17T11:00:16.871Z,20.38
2022-10-17T11:05:26.520Z,20.62
2022-10-17T11:10:38.201Z,20.69
2022-10-17T11:15:47.960Z,20.75
2022-10-17T11:22:06.841Z,20.75
2022-10-17T11:22:12.921Z,20.75
2022-10-17T11:27:26.200Z,20.69
2022-10-17T11:29:06.294Z,20.69
2022-10-17T11:32:48.762Z,20.62
2022-10-17T11:34:28.959Z,20.62
2022-10-17T11:38:04.972Z,20.62
2022-10-17T11:43:20.444Z,20.75
2022-10-17T11:45:00.466Z,20.75
2022-10-17T11:48:37.239Z,20.88
2022-10-17T11:53:53.404Z,21
2022-10-17T11:55:33.416Z,21
2022-10-17T11:59:10.204Z,21.06
2022-10-17T12:05:15.150Z,20.56
2022-10-17T12:24:00.128Z,20.94
2022-10-17T12:27:56.658Z,20.94
2022-10-17T12:33:11.415Z,20.81
2022-10-17T12:38:26.945Z,21
2022-10-17T12:43:44.647Z,21
2022-10-17T12:48:58.629Z,21.06
2022-10-17T12:49:56.835Z,21.06
2022-10-17T12:55:13.363Z,20.75
2022-10-17T12:55:15.302Z,20.75
2022-10-17T13:00:20.640Z,20.62
2022-10-17T13:00:32.884Z,20.62
2022-10-17T13:05:40.599Z,20.75
2022-10-17T13:05:50.334Z,20.75
2022-10-17T13:10:58.026Z,20.5
2022-10-17T13:17:15.055Z,20.56
2022-10-17T13:17:52.441Z,20.56
2022-10-17T13:23:01.887Z,20.56
2022-10-17T13:28:19.992Z,20.5
2022-10-17T13:30:10.014Z,20.5
2022-10-17T13:36:18.940Z,20.38
2022-10-17T13:41:37.458Z,20.5
2022-10-17T13:46:49.981Z,20.44
2022-10-17T13:56:31.713Z,20.44
2022-10-17T13:57:21.695Z,20.44
2022-10-17T14:02:40.044Z,20.5
2022-10-17T14:07:01.467Z,20.31
2022-10-17T14:13:07.578Z,20.19
2022-10-17T14:13:57.581Z,20.19
2022-10-17T14:18:23.733Z,20.12
2022-10-17T14:27:14.791Z,20.12
2022-10-17T14:32:31.582Z,20.12
2022-10-17T14:39:27.738Z,20.06
2022-10-17T14:44:43.296Z,20.12
2022-10-17T14:55:16.217Z,20.12
2022-10-17T15:00:32.378Z,20.12
2022-10-17T15:05:47.999Z,20
2022-10-17T15:10:52.280Z,19.94
2022-10-17T15:11:07.800Z,19.94
2022-10-17T15:16:21.508Z,20
2022-10-17T15:17:11.542Z,20
2022-10-17T15:32:08.044Z,19.81
2022-10-17T15:32:58.044Z,19.81
2022-10-17T15:37:24.217Z,19.75
2022-10-17T15:38:14.222Z,19.75
2022-10-17T15:42:39.109Z,19.69
2022-10-17T15:43:29.102Z,19.69
2022-10-17T15:47:55.259Z,19.56
2022-10-17T15:48:45.265Z,19.56
2022-10-17T15:53:11.412Z,19.44
2022-10-17T15:54:01.658Z,19.44
2022-10-17T15:58:27.614Z,19.25
2022-10-17T15:59:17.613Z,19.25
2022-10-17T16:03:38.390Z,19.19
2022-10-17T16:04:22.513Z,19.19
2022-10-17T16:08:57.989Z,19
2022-10-17T16:09:47.995Z,19
2022-10-17T16:14:12.880Z,18.94
2022-10-17T16:15:02.867Z,18.94
2022-10-17T16:19:28.760Z,18.94
2022-10-17T16:20:18.367Z,18.94
2022-10-17T16:24:45.562Z,18.81
2022-10-17T16:26:27.823Z,18.81
2022-10-17T16:31:37.761Z,18.81
2022-10-17T16:35:16.864Z,18.81
2022-10-17T16:39:41.773Z,18.69
2022-10-17T16:41:21.773Z,18.69
2022-10-17T16:45:46.621Z,18.56
2022-10-17T16:46:36.621Z,18.56
2022-10-17T16:50:39.567Z,18.38
2022-10-17T16:56:18.349Z,18.38
2022-10-17T17:00:43.853Z,18.38
2022-10-17T17:07:49.242Z,18.31
2022-10-17T17:15:39.793Z,18.31
2022-10-17T17:20:06.639Z,18.25
2022-10-17T17:28:55.899Z,18.25
2022-10-17T17:43:37.341Z,18
2022-10-17T17:54:09.026Z,17.88
2022-10-17T17:59:25.187Z,17.94
2022-10-17T18:04:40.774Z,17.94
2022-10-17T18:09:54.944Z,18
2022-10-17T18:15:09.851Z,17.88
2022-10-17T18:19:37.085Z,17.88
2022-10-17T18:24:47.483Z,17.81
2022-10-17T18:29:57.241Z,17.81
2022-10-17T18:35:07.002Z,17.75
2022-10-17T18:40:16.762Z,17.75
2022-10-17T18:45:27.162Z,17.75
2022-10-17T18:50:36.281Z,17.75
2022-10-17T19:00:57.080Z,17.69
2022-10-17T19:06:07.573Z,17.56
2022-10-17T19:11:23.096Z,17.56
2022-10-17T19:16:38.646Z,17.5
2022-10-17T19:21:54.143Z,17.44
2022-10-17T19:27:09.023Z,17.5
2022-10-17T19:37:41.339Z,17.12
2022-10-17T19:42:11.320Z,17.12
2022-10-17T19:47:19.160Z,17.06
2022-10-17T19:52:27.319Z,17
2022-10-17T19:57:35.479Z,16.94
2022-10-17T20:02:45.246Z,16.94
2022-10-17T20:07:54.362Z,17
2022-10-17T20:13:04.151Z,16.88
2022-10-17T20:18:11.966Z,16.81
2022-10-17T20:23:21.082Z,16.88
2022-10-17T20:28:30.343Z,16.88
2022-10-17T20:33:39.329Z,16.88
2022-10-17T20:38:48.445Z,16.81
2022-10-17T20:44:00.763Z,16.81
2022-10-17T20:49:10.522Z,16.81
2022-10-17T20:54:19.001Z,16.88
2022-10-17T20:59:28.131Z,16.88
2022-10-17T21:04:47.256Z,16.69
2022-10-17T21:09:47.641Z,16.75
2022-10-17T21:14:56.759Z,16.62
2022-10-17T21:20:09.081Z,16.69
2022-10-17T21:25:20.201Z,16.75
2022-10-17T21:30:28.601Z,16.69
2022-10-17T21:35:52.058Z,16.69
2022-10-17T21:41:09.487Z,16.69
2022-10-17T21:46:27.580Z,16.62
2022-10-17T21:51:44.850Z,16.62
2022-10-17T21:56:19.893Z,16.44
2022-10-17T22:01:27.274Z,16.44
2022-10-17T22:06:41.210Z,16.56
2022-10-17T22:11:45.402Z,16.38
2022-10-17T22:16:53.882Z,16.5
2022-10-17T22:22:03.000Z,16.44
2022-10-17T22:27:12.793Z,16.62
2022-10-17T22:32:22.753Z,16.5
2022-10-17T22:37:31.715Z,16.44
2022-10-17T22:42:38.839Z,16.44
2022-10-17T22:47:47.321Z,16.44
2022-10-17T22:52:56.447Z,16.25
2022-10-17T22:58:08.761Z,16.19
2022-10-17T23:03:16.602Z,16.19
2022-10-17T23:08:25.749Z,16.31
2022-10-17T23:13:33.557Z,16.31
2022-10-17T23:18:43.323Z,16.31
2022-10-17T23:23:53.820Z,16.31
2022-10-17T23:29:10.073Z,16.25
2022-10-17T23:34:26.181Z,16.25
2022-10-17T23:39:43.846Z,16.12
2022-10-17T23:44:58.463Z,16.25
2022-10-17T23:50:14.623Z,16.19
2022-10-17T23:54:51.031Z,16.25
